CDT,Max TemperatureF,Mean TemperatureF,Min TemperatureF,Max Dew PointF,MeanDew PointF,Min DewpointF,Max Humidity, Mean Humidity, Min Humidity, Max Sea Level PressureIn, Mean Sea Level PressureIn, Min Sea Level PressureIn, Max VisibilityMiles, Mean VisibilityMiles, Min VisibilityMiles, Max Wind SpeedMPH, Mean Wind SpeedMPH, Max Gust SpeedMPH,PrecipitationIn, CloudCover, Events, WindDirDegrees
2013-9-1,77,68,60,66,62,57,94,77,54,29.95,29.82,29.74,10,10,10,12,5,24,0.00,5,Rain-Thunderstorm,300
2013-9-2,62,55,46,55,52,46,100,84,63,30.08,30.04,29.95,10,9,0,10,6,17,0.00,6,Fog-Rain,346
2013-9-3,75,60,44,57,51,45,100,75,44,30.11,30.06,30.00,10,8,0,10,2,,0.00,2,Fog,243
2013-9-4,75,63,51,63,55,48,94,75,41,30.22,30.12,30.03,10,10,10,8,2,,0.00,2,,355
2013-9-5,75,60,46,57,50,45,100,70,36,30.32,30.26,30.21,10,10,10,9,2,,0.00,0,,158
2013-9-6,84,72,59,68,62,54,88,74,55,30.21,30.07,29.95,10,10,10,14,6,22,0.00,2,,201
2013-9-7,87,74,60,70,65,54,94,75,48,30.13,29.99,29.92,10,10,7,20,4,25,0.00,2,,23
2013-9-8,71,60,50,57,52,46,100,70,41,30.17,30.10,29.99,10,10,7,13,5,17,0.00,2,Rain,110
2013-9-9,80,69,60,72,63,57,100,90,74,29.99,29.90,29.75,10,7,2,13,3,21,0.00,7,Rain-Thunderstorm,142
2013-9-10,71,66,62,63,62,60,92,85,72,29.96,29.94,29.92,10,10,10,7,5,,0.00,1,,219
2013-9-11,79,66,54,62,58,51,99,79,46,30.04,30.00,29.96,10,10,7,13,3,18,0.09,3,Rain,266
2013-9-12,63,53,42,55,48,41,99,80,51,30.22,30.12,30.00,10,10,10,13,4,22,0.00,4,,335
2013-9-13,63,49,36,46,41,36,100,78,46,30.27,30.21,30.12,10,9,0,10,1,10,0.00,2,Fog,19
2013-9-14,68,54,41,54,46,38,97,75,49,30.12,30.04,29.96,10,10,7,16,4,21,0.13,2,Rain,214
2013-9-15,57,46,35,54,48,35,99,90,73,30.32,30.11,29.96,10,10,4,17,4,21,0.13,7,Rain,25
2013-9-16,61,46,30,44,37,31,100,78,40,30.44,30.37,30.31,10,8,0,7,1,,0.00,2,Fog,142
2013-9-17,65,52,40,52,43,38,93,72,47,30.33,30.21,30.04,10,10,10,15,8,22,0.00,1,,170
2013-9-18,66,60,55,64,59,52,99,95,88,30.04,29.91,29.82,10,5,1,10,7,16,0.00,7,Rain-Thunderstorm,159
2013-9-19,77,70,63,69,65,63,99,93,79,29.83,29.77,29.68,10,9,2,15,5,48,0.36,5,Rain-Thunderstorm,176
2013-9-20,64,54,45,63,55,44,97,89,73,29.85,29.77,29.71,10,10,4,10,3,18,0.06,7,Rain,279
2013-9-21,56,47,37,45,41,37,99,81,53,29.99,29.91,29.84,10,10,3,9,3,,0.00,4,,322
2013-9-22,60,46,32,44,38,32,100,77,48,30.08,30.02,29.99,10,10,10,9,2,,0.00,0,,134
2013-9-23,65,54,43,50,46,41,91,77,53,30.09,30.04,30.01,10,10,10,15,8,21,0.00,0,,152
2013-9-24,70,56,41,51,46,41,99,79,42,30.06,30.02,29.97,10,9,2,8,4,,0.00,0,,142
2013-9-25,69,54,38,53,46,38,100,80,47,30.03,30.00,29.96,10,9,0,8,1,,0.00,1,Fog,133
2013-9-26,70,56,41,54,48,41,99,76,42,30.06,30.03,30.01,10,9,1,13,4,20,0.00,0,,145
2013-9-27,77,64,53,58,52,48,88,63,46,30.08,30.03,29.96,10,10,10,20,8,28,0.00,0,,158
2013-9-28,72,60,48,62,52,47,97,78,58,29.98,29.85,29.69,10,9,3,28,12,38,0.36,5,Rain,188
2013-9-29,67,54,40,48,44,40,99,74,39,29.99,29.94,29.90,10,10,7,12,4,16,0.02,0,,198
2013-9-30,70,60,51,48,46,44,75,61,43,29.90,29.78,29.70,10,10,10,21,12,30,0.00,0,,185